createdAt,value
2017-11-29T00:00:21.568Z,21.60
2017-11-29T00:02:50.323Z,15.50
2017-11-29T00:05:19.488Z,18.73
2017-11-29T00:07:48.359Z,12.67
2017-11-29T00:10:17.753Z,11.67
2017-11-29T00:12:48.080Z,13.93
2017-11-29T00:15:16.678Z,13.90
2017-11-29T00:17:45.688Z,16.40
2017-11-29T00:20:14.593Z,21.27
2017-11-29T00:22:43.537Z,13.17
2017-11-29T00:25:12.573Z,22.00
2017-11-29T00:30:32.486Z,23.43
2017-11-29T00:33:00.152Z,15.70
2017-11-29T00:35:27.771Z,22.20
2017-11-29T00:37:55.402Z,15.50
2017-11-29T00:40:23.015Z,16.37
2017-11-29T00:42:50.653Z,21.53
2017-11-29T00:45:18.272Z,22.63
2017-11-29T00:47:45.874Z,20.80
2017-11-29T00:50:13.758Z,20.63
2017-11-29T00:52:41.358Z,15.63
2017-11-29T00:55:08.997Z,17.07
2017-11-29T00:57:36.603Z,17.80
2017-11-29T01:00:04.207Z,19.40
2017-11-29T01:02:31.867Z,16.17
2017-11-29T01:04:59.474Z,25.30
2017-11-29T01:07:27.105Z,15.23
2017-11-29T01:09:54.709Z,22.47
2017-11-29T01:12:22.322Z,21.43
2017-11-29T01:14:49.971Z,21.63
2017-11-29T01:17:17.569Z,20.47
2017-11-29T01:19:45.470Z,20.37
2017-11-29T01:22:13.077Z,18.00
2017-11-29T01:24:40.691Z,17.40
2017-11-29T01:27:08.322Z,19.53
2017-11-29T01:29:36.167Z,15.90
2017-11-29T01:32:03.810Z,17.57
2017-11-29T01:34:31.661Z,19.60
2017-11-29T01:36:59.258Z,23.53
2017-11-29T01:39:26.882Z,17.53
2017-11-29T01:41:54.481Z,17.37
2017-11-29T01:44:22.387Z,20.03
2017-11-29T01:46:50.004Z,19.23
2017-11-29T01:49:18.454Z,20.40
2017-11-29T01:51:47.253Z,18.37
2017-11-29T01:54:16.249Z,21.67
2017-11-29T01:56:44.997Z,18.20
2017-11-29T01:59:13.516Z,18.10
2017-11-29T02:01:42.051Z,17.13
2017-11-29T02:04:10.341Z,22.37
2017-11-29T02:06:41.722Z,16.23
2017-11-29T02:09:14.201Z,17.50
2017-11-29T02:11:42.482Z,18.13
2017-11-29T02:14:10.764Z,15.80
2017-11-29T02:16:39.124Z,19.70
2017-11-29T02:19:07.474Z,23.50
2017-11-29T02:21:36.464Z,14.73
2017-11-29T02:24:05.059Z,19.03
2017-11-29T02:26:34.050Z,18.30
2017-11-29T02:29:02.719Z,16.67
2017-11-29T02:31:31.840Z,16.40
2017-11-29T02:34:00.628Z,15.47
2017-11-29T02:36:29.281Z,15.80
2017-11-29T02:38:58.209Z,17.70
2017-11-29T02:41:38.289Z,14.60
2017-11-29T02:44:07.336Z,13.70
2017-11-29T02:46:36.166Z,14.07
2017-11-29T02:49:04.699Z,15.00
2017-11-29T02:51:32.723Z,15.93
2017-11-29T02:54:00.573Z,18.90
2017-11-29T02:56:28.254Z,14.97
2017-11-29T02:58:55.898Z,17.20
2017-11-29T03:01:23.502Z,14.17
2017-11-29T03:03:51.158Z,16.07
2017-11-29T03:06:18.766Z,16.83
2017-11-29T03:08:46.381Z,17.17
2017-11-29T03:11:14.266Z,18.50
2017-11-29T03:13:42.132Z,15.40
2017-11-29T03:16:09.771Z,19.23
2017-11-29T03:18:37.370Z,20.50
2017-11-29T03:21:04.980Z,18.67
2017-11-29T03:23:33.397Z,16.63
2017-11-29T03:26:01.987Z,22.63
2017-11-29T03:28:30.314Z,16.97
2017-11-29T03:30:58.655Z,18.83
2017-11-29T03:33:28.189Z,17.80
2017-11-29T03:35:56.703Z,17.20
2017-11-29T03:38:25.030Z,17.17
2017-11-29T03:40:53.376Z,16.20
2017-11-29T03:43:21.431Z,22.77
2017-11-29T03:45:49.754Z,21.17
2017-11-29T03:48:18.423Z,17.50
2017-11-29T03:50:46.565Z,22.40
2017-11-29T03:53:14.819Z,20.57
2017-11-29T03:55:43.015Z,18.67
2017-11-29T03:58:11.518Z,17.13
2017-11-29T04:00:39.907Z,23.23
2017-11-29T04:03:07.919Z,17.50
2017-11-29T04:05:36.619Z,23.63
2017-11-29T04:08:04.980Z,18.90
2017-11-29T04:10:33.459Z,17.83
2017-11-29T04:13:01.794Z,19.83
2017-11-29T04:15:30.391Z,19.60
2017-11-29T04:17:58.879Z,17.80
2017-11-29T04:20:27.384Z,19.97
2017-11-29T04:22:55.745Z,20.13
2017-11-29T04:25:24.481Z,18.00
2017-11-29T04:27:52.787Z,19.17
2017-11-29T04:30:21.346Z,18.87
2017-11-29T04:32:49.773Z,17.77
2017-11-29T04:35:18.148Z,21.40
2017-11-29T04:37:46.521Z,22.93
2017-11-29T04:40:15.021Z,20.97
2017-11-29T04:42:43.494Z,20.40
2017-11-29T04:45:11.979Z,17.63
2017-11-29T04:47:40.771Z,17.73
2017-11-29T05:00:51.189Z,18.00
2017-11-29T05:03:19.461Z,19.77
2017-11-29T05:05:47.693Z,15.40
2017-11-29T05:08:26.327Z,18.33
2017-11-29T05:10:54.546Z,22.00
2017-11-29T05:13:22.625Z,16.30
2017-11-29T05:15:50.784Z,18.37
2017-11-29T05:18:18.907Z,23.33
2017-11-29T05:20:47.210Z,20.30
2017-11-29T05:23:15.266Z,21.10
2017-11-29T05:25:43.518Z,18.70
2017-11-29T05:28:11.658Z,17.53
2017-11-29T05:30:40.017Z,16.40
2017-11-29T05:33:07.703Z,22.83
2017-11-29T05:35:35.274Z,19.97
2017-11-29T05:38:02.865Z,24.87
2017-11-29T05:40:30.779Z,25.80
2017-11-29T05:42:58.741Z,19.07
2017-11-29T05:45:26.363Z,20.57
2017-11-29T05:47:53.967Z,17.40
2017-11-29T05:50:21.840Z,19.17
2017-11-29T05:52:49.480Z,20.20
2017-11-29T05:55:17.359Z,21.80
2017-11-29T05:57:45.331Z,20.90
2017-11-29T06:00:12.940Z,21.83
2017-11-29T06:02:40.559Z,19.87
2017-11-29T06:05:08.180Z,18.07
2017-11-29T06:07:35.771Z,19.63
2017-11-29T06:10:03.398Z,20.17
2017-11-29T06:12:31.048Z,24.63
2017-11-29T06:14:58.642Z,29.10
2017-11-29T06:17:26.539Z,22.87
2017-11-29T06:19:54.397Z,22.70
2017-11-29T06:22:22.039Z,23.60
2017-11-29T06:24:49.667Z,25.93
2017-11-29T06:27:17.257Z,21.53
2017-11-29T06:29:44.862Z,19.90
2017-11-29T06:32:12.476Z,22.70
2017-11-29T06:34:40.131Z,23.13
2017-11-29T06:37:07.786Z,24.67
2017-11-29T06:39:35.709Z,26.30
2017-11-29T06:42:03.364Z,20.23
2017-11-29T06:44:30.959Z,19.83
2017-11-29T06:46:58.623Z,23.13
2017-11-29T06:49:26.472Z,22.13
2017-11-29T06:51:54.049Z,23.93
2017-11-29T06:54:21.672Z,25.50
2017-11-29T06:56:49.274Z,22.30
2017-11-29T06:59:16.915Z,22.70
2017-11-29T07:01:44.513Z,27.57
2017-11-29T07:04:12.119Z,29.90
2017-11-29T07:06:39.729Z,25.83
2017-11-29T07:09:07.344Z,23.67
2017-11-29T07:11:35.293Z,22.40
2017-11-29T07:14:02.918Z,19.47
2017-11-29T07:16:30.497Z,22.03
2017-11-29T07:18:58.111Z,25.70
2017-11-29T07:21:25.697Z,24.10
2017-11-29T07:23:53.365Z,25.40
2017-11-29T07:26:20.997Z,22.73
2017-11-29T07:28:48.606Z,26.20
2017-11-29T07:31:16.236Z,21.70
2017-11-29T07:33:44.218Z,25.00
2017-11-29T07:36:11.852Z,22.70
2017-11-29T07:38:39.441Z,22.67
2017-11-29T07:41:07.089Z,28.70
2017-11-29T07:43:34.710Z,27.27
2017-11-29T07:46:02.656Z,24.83
2017-11-29T07:48:30.322Z,24.13
2017-11-29T07:50:57.922Z,26.30
2017-11-29T07:53:25.523Z,21.87
2017-11-29T07:55:53.161Z,22.67
2017-11-29T07:58:20.830Z,25.83
2017-11-29T08:00:48.794Z,22.93
2017-11-29T08:03:16.376Z,28.00
2017-11-29T08:05:43.958Z,21.80
2017-11-29T08:08:11.574Z,25.87
2017-11-29T08:10:39.169Z,28.50
2017-11-29T08:13:06.796Z,37.47
2017-11-29T08:15:34.675Z,22.80
2017-11-29T08:18:02.537Z,22.07
2017-11-29T08:20:30.170Z,24.63
2017-11-29T08:22:57.752Z,27.97
2017-11-29T08:25:25.377Z,26.57
2017-11-29T08:27:52.971Z,25.50
2017-11-29T08:30:20.861Z,21.80
2017-11-29T08:32:57.354Z,25.00
2017-11-29T08:35:24.963Z,25.27
2017-11-29T08:37:52.853Z,31.97
2017-11-29T08:40:20.449Z,31.57
2017-11-29T08:42:48.825Z,24.07
2017-11-29T08:45:16.522Z,22.50
2017-11-29T08:47:44.432Z,23.43
2017-11-29T08:50:12.377Z,23.60
2017-11-29T08:52:40.264Z,22.63
2017-11-29T08:55:07.876Z,22.23
2017-11-29T08:57:35.525Z,25.03
2017-11-29T09:00:03.465Z,30.03
2017-11-29T09:02:31.105Z,24.77
2017-11-29T09:04:58.762Z,27.30
2017-11-29T09:07:26.368Z,20.43
2017-11-29T09:09:53.983Z,22.40
2017-11-29T09:12:21.593Z,25.07
2017-11-29T09:14:49.251Z,25.43
2017-11-29T09:17:16.869Z,24.53
2017-11-29T09:19:44.507Z,21.80
2017-11-29T09:22:12.127Z,26.20
2017-11-29T09:24:39.991Z,23.33
2017-11-29T09:27:07.626Z,21.50
2017-11-29T09:29:35.525Z,25.73
2017-11-29T09:32:05.685Z,22.27
2017-11-29T09:34:33.516Z,29.53
2017-11-29T09:37:01.118Z,26.23
2017-11-29T09:39:28.773Z,24.27
2017-11-29T09:41:56.355Z,31.57
2017-11-29T09:44:23.962Z,29.20
2017-11-29T09:46:51.625Z,25.97
2017-11-29T09:49:19.263Z,25.10
2017-11-29T09:51:46.917Z,27.67
2017-11-29T09:54:14.523Z,21.87
2017-11-29T09:56:42.127Z,25.50
2017-11-29T09:59:10.585Z,27.47
2017-11-29T10:01:38.209Z,30.83
2017-11-29T10:04:05.850Z,27.00
2017-11-29T10:06:33.465Z,22.93
2017-11-29T10:09:01.047Z,29.00
2017-11-29T10:11:28.667Z,23.53
2017-11-29T10:13:56.534Z,24.83
2017-11-29T10:16:24.154Z,22.03
2017-11-29T10:18:51.765Z,22.60
2017-11-29T10:21:19.366Z,21.00
2017-11-29T10:23:47.122Z,25.83
2017-11-29T10:26:15.050Z,28.83
2017-11-29T10:28:43.017Z,22.57
2017-11-29T10:31:10.602Z,23.50
2017-11-29T10:33:38.219Z,24.33
2017-11-29T10:36:05.902Z,23.90
2017-11-29T10:38:33.520Z,26.70
2017-11-29T10:41:01.169Z,26.10
2017-11-29T10:43:29.099Z,25.50
2017-11-29T10:45:56.700Z,30.50
2017-11-29T10:48:24.336Z,30.83
2017-11-29T10:50:51.922Z,23.13
2017-11-29T10:53:19.546Z,26.47
2017-11-29T10:55:47.418Z,25.13
2017-11-29T10:58:15.286Z,21.67
2017-11-29T11:00:42.956Z,27.40
2017-11-29T11:03:10.565Z,24.37
2017-11-29T11:05:38.586Z,23.67
2017-11-29T11:08:06.454Z,25.93
2017-11-29T11:10:34.055Z,29.33
2017-11-29T11:13:01.682Z,23.47
2017-11-29T11:15:29.283Z,28.00
2017-11-29T11:17:56.945Z,27.43
2017-11-29T11:20:24.528Z,25.03
2017-11-29T11:22:52.165Z,24.30
2017-11-29T11:25:19.777Z,29.47
2017-11-29T11:27:47.375Z,45.90
2017-11-29T11:30:15.023Z,29.40
2017-11-29T11:32:42.873Z,24.70
2017-11-29T11:35:10.498Z,26.33
2017-11-29T11:37:38.142Z,21.97
2017-11-29T11:40:05.742Z,26.37
2017-11-29T11:42:33.382Z,30.43
2017-11-29T11:45:01.020Z,24.40
2017-11-29T11:47:28.627Z,26.37
2017-11-29T11:49:56.281Z,30.87
2017-11-29T11:52:23.894Z,20.87
2017-11-29T11:54:51.597Z,25.07
2017-11-29T11:57:19.217Z,27.20
2017-11-29T11:59:46.827Z,22.40
2017-11-29T12:02:14.423Z,51.67
2017-11-29T12:04:42.040Z,23.90
2017-11-29T12:07:09.637Z,25.80
2017-11-29T12:09:38.438Z,25.23
2017-11-29T12:12:06.019Z,27.33
2017-11-29T12:14:33.601Z,25.27
2017-11-29T12:17:01.201Z,32.70
2017-11-29T12:19:28.822Z,24.43
2017-11-29T12:21:56.443Z,22.00
2017-11-29T12:24:24.050Z,25.30
2017-11-29T12:26:51.642Z,31.90
2017-11-29T12:29:19.287Z,22.37
2017-11-29T12:31:47.107Z,24.33
2017-11-29T12:34:14.736Z,22.00
2017-11-29T12:36:42.313Z,36.60
2017-11-29T12:39:09.907Z,28.83
2017-11-29T12:41:37.755Z,28.90
2017-11-29T12:44:05.354Z,30.43
2017-11-29T12:46:32.979Z,26.80
2017-11-29T12:49:12.537Z,24.37
2017-11-29T12:51:40.182Z,31.77
2017-11-29T12:54:07.809Z,23.87
2017-11-29T12:56:35.467Z,29.80
2017-11-29T12:59:03.095Z,24.70
2017-11-29T13:01:30.700Z,28.20
2017-11-29T13:03:58.665Z,30.50
2017-11-29T13:06:26.262Z,22.43
2017-11-29T13:08:53.845Z,29.10
2017-11-29T13:11:21.462Z,25.23
2017-11-29T13:13:49.051Z,21.93
2017-11-29T13:16:16.694Z,30.07
2017-11-29T13:18:44.270Z,29.13
2017-11-29T13:21:11.882Z,29.67
2017-11-29T13:23:39.492Z,19.90
2017-11-29T13:26:07.110Z,27.97
2017-11-29T13:28:34.749Z,29.80
2017-11-29T13:31:02.685Z,24.33
2017-11-29T13:33:30.553Z,24.60
2017-11-29T13:35:58.222Z,22.80
2017-11-29T13:38:25.848Z,26.03
2017-11-29T13:40:53.503Z,52.13
2017-11-29T13:43:21.076Z,26.30
2017-11-29T13:45:48.661Z,29.47
2017-11-29T13:48:16.285Z,24.60
2017-11-29T13:50:43.873Z,25.30
2017-11-29T13:53:11.497Z,25.40
2017-11-29T13:55:39.082Z,30.03
2017-11-29T13:58:06.684Z,29.33
2017-11-29T14:00:34.316Z,22.63
2017-11-29T14:03:01.939Z,23.23
2017-11-29T14:05:29.618Z,23.53
2017-11-29T14:07:57.246Z,25.17
2017-11-29T14:10:24.839Z,26.00
2017-11-29T14:12:52.454Z,35.83
2017-11-29T14:15:20.048Z,23.90
2017-11-29T14:17:47.670Z,35.03
2017-11-29T14:20:15.260Z,21.93
2017-11-29T14:22:42.845Z,25.20
2017-11-29T14:25:10.762Z,23.07
2017-11-29T14:27:38.356Z,25.70
2017-11-29T14:30:06.033Z,26.87
2017-11-29T14:32:33.620Z,23.77
2017-11-29T14:35:01.221Z,25.23
2017-11-29T14:37:29.177Z,27.83
2017-11-29T14:39:56.769Z,23.57
2017-11-29T14:42:24.392Z,32.70
2017-11-29T14:44:51.984Z,26.93
2017-11-29T14:47:19.565Z,27.80
2017-11-29T14:49:47.209Z,23.37
2017-11-29T14:52:14.800Z,26.37
2017-11-29T14:54:42.893Z,24.33
2017-11-29T14:57:11.602Z,23.43
2017-11-29T14:59:39.188Z,24.27
2017-11-29T15:02:06.819Z,22.30
2017-11-29T15:04:34.807Z,36.80
2017-11-29T15:07:02.438Z,24.93
2017-11-29T15:09:30.041Z,29.83
2017-11-29T15:11:57.684Z,27.97
2017-11-29T15:14:25.319Z,26.67
2017-11-29T15:16:52.926Z,26.43
2017-11-29T15:19:20.566Z,23.47
2017-11-29T15:21:48.173Z,25.23
2017-11-29T15:24:15.769Z,25.00
2017-11-29T15:26:43.394Z,28.00
2017-11-29T15:29:10.968Z,34.20
2017-11-29T15:31:38.605Z,43.77
2017-11-29T15:34:06.215Z,30.93
2017-11-29T15:36:34.168Z,25.20
2017-11-29T15:39:01.809Z,28.50
2017-11-29T15:41:29.467Z,24.63
2017-11-29T15:43:57.333Z,23.87
2017-11-29T15:46:24.939Z,31.80
2017-11-29T15:48:52.582Z,25.23
2017-11-29T15:51:20.229Z,26.43
2017-11-29T15:53:47.823Z,29.50
2017-11-29T15:56:15.731Z,32.17
2017-11-29T15:58:43.343Z,29.33
2017-11-29T16:01:10.969Z,28.40
2017-11-29T16:03:38.939Z,26.10
2017-11-29T16:06:06.522Z,36.13
2017-11-29T16:08:34.159Z,25.87
2017-11-29T16:11:02.026Z,28.33
2017-11-29T16:13:29.619Z,28.87
2017-11-29T16:15:57.249Z,26.03
2017-11-29T16:18:25.121Z,26.33
2017-11-29T16:20:53.088Z,31.93
2017-11-29T16:23:20.667Z,33.70
2017-11-29T16:25:48.269Z,28.50
2017-11-29T16:28:15.882Z,28.90
2017-11-29T16:30:43.505Z,33.23
2017-11-29T16:33:11.165Z,26.87
2017-11-29T16:35:38.749Z,32.80
2017-11-29T16:38:06.350Z,25.70
2017-11-29T16:40:33.977Z,32.47
2017-11-29T16:43:01.597Z,24.43
2017-11-29T16:45:29.250Z,28.73
2017-11-29T16:47:56.838Z,26.83
2017-11-29T16:50:24.426Z,27.90
2017-11-29T16:52:52.049Z,27.70
2017-11-29T16:55:19.639Z,28.00
2017-11-29T16:57:47.513Z,25.20
2017-11-29T17:00:15.106Z,33.70
2017-11-29T17:02:42.724Z,26.97
2017-11-29T17:05:10.345Z,33.20
2017-11-29T17:07:37.945Z,25.93
2017-11-29T17:10:05.586Z,27.73
2017-11-29T17:12:33.205Z,31.23
2017-11-29T17:15:00.834Z,25.87
2017-11-29T17:17:28.493Z,32.47
2017-11-29T17:19:56.065Z,25.50
2017-11-29T17:22:23.710Z,30.07
2017-11-29T17:24:51.298Z,27.07
2017-11-29T17:27:18.913Z,29.20
2017-11-29T17:29:58.434Z,30.60
2017-11-29T17:32:26.033Z,25.37
2017-11-29T17:34:53.674Z,36.23
2017-11-29T17:37:21.258Z,32.03
2017-11-29T17:39:48.859Z,34.67
2017-11-29T17:42:16.475Z,27.00
2017-11-29T17:44:44.054Z,30.80
2017-11-29T17:47:11.696Z,31.47
2017-11-29T17:49:39.599Z,28.30
2017-11-29T17:52:07.200Z,31.80
2017-11-29T17:54:34.810Z,33.20
2017-11-29T17:57:02.394Z,34.53
2017-11-29T17:59:30.038Z,27.30
2017-11-29T18:01:57.655Z,34.33
2017-11-29T18:04:25.241Z,28.87
2017-11-29T18:06:52.881Z,31.73
2017-11-29T18:09:20.481Z,43.47
2017-11-29T18:11:48.122Z,34.70
2017-11-29T18:14:16.040Z,38.37
2017-11-29T18:16:43.655Z,33.07
2017-11-29T18:19:11.272Z,30.90
2017-11-29T18:21:39.118Z,33.40
2017-11-29T18:24:07.090Z,38.27
2017-11-29T18:26:34.689Z,34.10
2017-11-29T18:29:02.267Z,31.00
2017-11-29T18:31:30.386Z,35.23
2017-11-29T18:33:57.965Z,31.43
2017-11-29T18:36:25.920Z,32.77
2017-11-29T18:38:53.494Z,36.17
2017-11-29T18:41:21.324Z,33.90
2017-11-29T18:43:49.041Z,28.93
2017-11-29T18:46:16.623Z,38.20
2017-11-29T18:48:44.209Z,29.73
2017-11-29T18:51:13.320Z,33.80
2017-11-29T18:53:40.998Z,32.07
2017-11-29T18:56:08.681Z,30.87
2017-11-29T18:58:36.956Z,31.70
2017-11-29T19:01:04.912Z,30.13
2017-11-29T19:03:32.522Z,35.83
2017-11-29T19:06:00.136Z,29.43
2017-11-29T19:08:28.110Z,39.87
2017-11-29T19:10:55.694Z,29.80
2017-11-29T19:13:23.281Z,32.57
2017-11-29T19:15:51.209Z,33.33
2017-11-29T19:18:18.794Z,35.33
2017-11-29T19:20:46.434Z,42.80
2017-11-29T19:23:14.027Z,36.63
2017-11-29T19:25:41.653Z,34.80
2017-11-29T19:28:09.302Z,33.37
2017-11-29T19:30:36.889Z,30.80
2017-11-29T19:33:04.846Z,30.70
2017-11-29T19:35:32.707Z,29.53
2017-11-29T19:38:00.306Z,34.33
2017-11-29T19:40:27.950Z,32.90
2017-11-29T19:42:55.557Z,32.63
2017-11-29T19:45:23.188Z,36.07
2017-11-29T19:47:50.806Z,34.13
2017-11-29T19:50:18.447Z,32.00
2017-11-29T19:52:46.341Z,38.67
2017-11-29T19:55:13.941Z,31.60
2017-11-29T19:57:41.587Z,30.77
2017-11-29T20:00:09.201Z,32.17
2017-11-29T20:02:36.809Z,33.43
2017-11-29T20:05:04.482Z,32.50
2017-11-29T20:07:32.068Z,40.83
2017-11-29T20:09:59.706Z,36.97
2017-11-29T20:12:27.386Z,28.33
2017-11-29T20:14:54.991Z,30.80
2017-11-29T20:17:22.653Z,35.40
2017-11-29T20:19:50.234Z,32.83
2017-11-29T20:22:17.913Z,42.87
2017-11-29T20:24:45.501Z,33.50
2017-11-29T20:27:13.101Z,39.33
2017-11-29T20:29:40.972Z,30.67
2017-11-29T20:32:08.855Z,26.87
2017-11-29T20:34:36.597Z,29.47
2017-11-29T20:37:04.181Z,33.47
2017-11-29T20:39:31.795Z,42.67
2017-11-29T20:41:59.422Z,35.67
2017-11-29T20:44:27.006Z,45.33
2017-11-29T20:46:54.682Z,34.97
2017-11-29T20:49:22.528Z,33.07
2017-11-29T20:51:50.462Z,35.20
2017-11-29T20:54:18.077Z,32.30
2017-11-29T20:56:45.989Z,44.77
2017-11-29T20:59:13.962Z,33.80
2017-11-29T21:01:41.556Z,34.30
2017-11-29T21:04:09.153Z,33.77
2017-11-29T21:06:41.832Z,35.27
2017-11-29T21:09:09.442Z,35.70
2017-11-29T21:11:37.365Z,34.10
2017-11-29T21:14:05.028Z,37.80
2017-11-29T21:16:32.660Z,35.60
2017-11-29T21:19:00.589Z,36.40
2017-11-29T21:21:28.190Z,43.43
2017-11-29T21:23:55.864Z,33.37
2017-11-29T21:26:23.473Z,38.80
2017-11-29T21:28:51.453Z,36.03
2017-11-29T21:31:19.093Z,37.00
2017-11-29T21:33:46.694Z,33.47
2017-11-29T21:36:14.333Z,36.10
2017-11-29T21:38:41.942Z,35.07
2017-11-29T21:41:09.545Z,35.33
2017-11-29T21:43:37.202Z,32.80
2017-11-29T21:46:04.810Z,33.57
2017-11-29T21:48:32.473Z,33.63
2017-11-29T21:51:00.066Z,40.53
2017-11-29T21:53:27.662Z,34.03
2017-11-29T21:55:55.329Z,33.77
2017-11-29T21:58:22.933Z,39.67
2017-11-29T22:00:50.591Z,36.13
2017-11-29T22:03:18.194Z,42.07
2017-11-29T22:05:45.785Z,39.50
2017-11-29T22:08:13.429Z,36.77
2017-11-29T22:10:41.023Z,36.90
2017-11-29T22:13:08.662Z,33.03
2017-11-29T22:15:36.559Z,32.27
2017-11-29T22:18:04.259Z,33.83
2017-11-29T22:20:31.926Z,34.60
2017-11-29T22:22:59.534Z,30.47
2017-11-29T22:25:27.173Z,28.60
2017-11-29T22:27:54.794Z,36.13
2017-11-29T22:30:22.633Z,37.87
2017-11-29T22:32:50.269Z,30.53
2017-11-29T22:35:17.857Z,38.17
2017-11-29T22:37:45.486Z,31.33
2017-11-29T22:40:13.073Z,35.43
2017-11-29T22:42:40.732Z,35.23
2017-11-29T22:45:08.346Z,32.60
2017-11-29T22:47:36.329Z,40.20
2017-11-29T22:50:04.061Z,49.60
2017-11-29T22:52:31.685Z,31.57
2017-11-29T22:54:59.318Z,34.80
2017-11-29T22:57:26.946Z,31.10
2017-11-29T22:59:54.542Z,34.07
2017-11-29T23:02:22.165Z,34.80
2017-11-29T23:04:49.743Z,38.77
2017-11-29T23:07:17.665Z,31.57
2017-11-29T23:09:45.541Z,35.23
2017-11-29T23:12:13.149Z,32.03
2017-11-29T23:14:40.800Z,31.73
2017-11-29T23:17:08.479Z,33.60
2017-11-29T23:19:36.067Z,31.87
2017-11-29T23:22:03.667Z,33.60
2017-11-29T23:24:31.261Z,40.03
2017-11-29T23:26:58.906Z,34.63
2017-11-29T23:29:26.737Z,34.57
2017-11-29T23:31:54.356Z,31.83
2017-11-29T23:34:21.977Z,38.37
2017-11-29T23:36:49.553Z,41.53
2017-11-29T23:39:17.187Z,39.27
2017-11-29T23:41:44.777Z,37.97
2017-11-29T23:44:12.354Z,31.13
2017-11-29T23:46:39.965Z,40.80
2017-11-29T23:49:07.595Z,32.97
2017-11-29T23:51:35.226Z,38.73
2017-11-29T23:54:02.811Z,31.90
2017-11-29T23:56:30.394Z,32.40
2017-11-29T23:58:58.009Z,36.80
